sensor_id;sensor_type;location;lat;lon;timestamp;P1;durP1;ratioP1;P2;durP2;ratioP2
52031;SDS011;38044;45.148;39.604;2022-09-09T00:00:53;26.17;;;9.65;;
52031;SDS011;38044;45.148;39.604;2022-09-09T00:03:26;32.33;;;10.50;;
52031;SDS011;38044;45.148;39.604;2022-09-09T00:08:40;22.10;;;8.10;;
52031;SDS011;38044;45.148;39.604;2022-09-09T00:11:40;16.77;;;7.05;;
52031;SDS011;38044;45.148;39.604;2022-09-09T00:14:09;18.50;;;7.07;;
52031;SDS011;38044;45.148;39.604;2022-09-09T00:16:40;16.40;;;6.45;;
52031;SDS011;38044;45.148;39.604;2022-09-09T00:21:36;12.57;;;6.13;;
52031;SDS011;38044;45.148;39.604;2022-09-09T00:26:53;11.50;;;5.38;;
52031;SDS011;38044;45.148;39.604;2022-09-09T00:29:44;12.98;;;4.85;;
52031;SDS011;38044;45.148;39.604;2022-09-09T00:32:24;5.97;;;3.97;;
52031;SDS011;38044;45.148;39.604;2022-09-09T00:37:30;8.65;;;4.30;;
52031;SDS011;38044;45.148;39.604;2022-09-09T00:39:58;10.88;;;4.30;;
52031;SDS011;38044;45.148;39.604;2022-09-09T00:42:40;7.28;;;3.88;;
52031;SDS011;38044;45.148;39.604;2022-09-09T00:47:58;6.45;;;4.15;;
52031;SDS011;38044;45.148;39.604;2022-09-09T00:53:15;16.55;;;4.00;;
52031;SDS011;38044;45.148;39.604;2022-09-09T00:56:03;7.25;;;3.70;;
52031;SDS011;38044;45.148;39.604;2022-09-09T00:58:42;10.85;;;4.32;;
52031;SDS011;38044;45.148;39.604;2022-09-09T01:01:15;7.93;;;3.90;;
52031;SDS011;38044;45.148;39.604;2022-09-09T01:06:30;6.55;;;3.70;;
52031;SDS011;38044;45.148;39.604;2022-09-09T01:09:10;9.93;;;4.03;;
52031;SDS011;38044;45.148;39.604;2022-09-09T01:16:56;7.05;;;3.92;;
52031;SDS011;38044;45.148;39.604;2022-09-09T01:27:59;7.57;;;4.18;;
52031;SDS011;38044;45.148;39.604;2022-09-09T01:30:28;8.52;;;4.15;;
52031;SDS011;38044;45.148;39.604;2022-09-09T01:33:03;13.65;;;4.43;;
52031;SDS011;38044;45.148;39.604;2022-09-09T01:35:32;11.82;;;4.07;;
52031;SDS011;38044;45.148;39.604;2022-09-09T01:38:05;8.40;;;4.40;;
52031;SDS011;38044;45.148;39.604;2022-09-09T01:40:31;12.07;;;4.53;;
52031;SDS011;38044;45.148;39.604;2022-09-09T01:42:57;11.23;;;4.35;;
52031;SDS011;38044;45.148;39.604;2022-09-09T01:45:23;8.50;;;4.43;;
52031;SDS011;38044;45.148;39.604;2022-09-09T01:47:51;11.63;;;4.60;;
52031;SDS011;38044;45.148;39.604;2022-09-09T01:50:17;11.30;;;4.85;;
52031;SDS011;38044;45.148;39.604;2022-09-09T01:52:45;12.98;;;4.93;;
52031;SDS011;38044;45.148;39.604;2022-09-09T01:55:15;14.40;;;5.03;;
52031;SDS011;38044;45.148;39.604;2022-09-09T01:58:17;9.05;;;4.38;;
52031;SDS011;38044;45.148;39.604;2022-09-09T02:03:34;9.05;;;4.68;;
52031;SDS011;38044;45.148;39.604;2022-09-09T02:06:05;8.68;;;5.10;;
52031;SDS011;38044;45.148;39.604;2022-09-09T02:08:45;10.35;;;4.63;;
52031;SDS011;38044;45.148;39.604;2022-09-09T02:11:18;10.38;;;4.40;;
52031;SDS011;38044;45.148;39.604;2022-09-09T02:13:46;8.60;;;4.78;;
52031;SDS011;38044;45.148;39.604;2022-09-09T02:18:51;14.80;;;5.18;;
52031;SDS011;38044;45.148;39.604;2022-09-09T02:21:26;13.18;;;5.13;;
52031;SDS011;38044;45.148;39.604;2022-09-09T02:23:54;13.90;;;5.50;;
52031;SDS011;38044;45.148;39.604;2022-09-09T02:26:22;12.65;;;5.35;;
52031;SDS011;38044;45.148;39.604;2022-09-09T02:28:50;8.43;;;5.32;;
52031;SDS011;38044;45.148;39.604;2022-09-09T02:31:20;11.30;;;5.22;;
52031;SDS011;38044;45.148;39.604;2022-09-09T02:33:54;8.88;;;5.82;;
52031;SDS011;38044;45.148;39.604;2022-09-09T02:36:26;10.15;;;5.60;;
52031;SDS011;38044;45.148;39.604;2022-09-09T02:38:55;35.42;;;6.72;;
52031;SDS011;38044;45.148;39.604;2022-09-09T02:41:32;16.13;;;5.60;;
52031;SDS011;38044;45.148;39.604;2022-09-09T02:43:59;17.67;;;6.47;;
52031;SDS011;38044;45.148;39.604;2022-09-09T02:46:36;24.60;;;6.88;;
52031;SDS011;38044;45.148;39.604;2022-09-09T02:49:17;15.38;;;6.30;;
52031;SDS011;38044;45.148;39.604;2022-09-09T02:54:34;14.15;;;5.57;;
52031;SDS011;38044;45.148;39.604;2022-09-09T02:57:23;15.27;;;6.10;;
52031;SDS011;38044;45.148;39.604;2022-09-09T02:59:53;14.90;;;5.82;;
52031;SDS011;38044;45.148;39.604;2022-09-09T03:02:20;13.85;;;6.10;;
52031;SDS011;38044;45.148;39.604;2022-09-09T03:04:46;13.23;;;6.68;;
52031;SDS011;38044;45.148;39.604;2022-09-09T03:07:16;19.65;;;7.25;;
52031;SDS011;38044;45.148;39.604;2022-09-09T03:09:43;18.90;;;6.75;;
52031;SDS011;38044;45.148;39.604;2022-09-09T03:12:09;23.70;;;7.60;;
52031;SDS011;38044;45.148;39.604;2022-09-09T03:14:36;23.77;;;7.15;;
52031;SDS011;38044;45.148;39.604;2022-09-09T03:17:03;26.23;;;7.55;;
52031;SDS011;38044;45.148;39.604;2022-09-09T03:19:30;22.70;;;7.18;;
52031;SDS011;38044;45.148;39.604;2022-09-09T03:21:57;8.80;;;6.00;;
52031;SDS011;38044;45.148;39.604;2022-09-09T03:24:24;15.45;;;6.25;;
52031;SDS011;38044;45.148;39.604;2022-09-09T03:26:50;12.75;;;5.60;;
52031;SDS011;38044;45.148;39.604;2022-09-09T03:29:16;41.70;;;7.70;;
52031;SDS011;38044;45.148;39.604;2022-09-09T03:31:42;19.25;;;6.05;;
52031;SDS011;38044;45.148;39.604;2022-09-09T03:34:08;12.10;;;6.68;;
52031;SDS011;38044;45.148;39.604;2022-09-09T03:36:35;15.02;;;6.53;;
52031;SDS011;38044;45.148;39.604;2022-09-09T03:39:01;15.52;;;7.03;;
52031;SDS011;38044;45.148;39.604;2022-09-09T03:41:29;23.23;;;8.57;;
52031;SDS011;38044;45.148;39.604;2022-09-09T03:43:55;16.80;;;7.32;;
52031;SDS011;38044;45.148;39.604;2022-09-09T03:46:23;28.77;;;7.68;;
52031;SDS011;38044;45.148;39.604;2022-09-09T03:48:51;18.33;;;7.82;;
52031;SDS011;38044;45.148;39.604;2022-09-09T03:51:17;18.50;;;8.73;;
52031;SDS011;38044;45.148;39.604;2022-09-09T03:53:44;23.92;;;7.22;;
52031;SDS011;38044;45.148;39.604;2022-09-09T03:56:10;17.77;;;6.75;;
52031;SDS011;38044;45.148;39.604;2022-09-09T03:58:36;13.75;;;6.60;;
52031;SDS011;38044;45.148;39.604;2022-09-09T04:01:04;119.72;;;12.93;;
52031;SDS011;38044;45.148;39.604;2022-09-09T04:03:33;18.33;;;6.80;;
52031;SDS011;38044;45.148;39.604;2022-09-09T04:06:00;19.20;;;6.75;;
52031;SDS011;38044;45.148;39.604;2022-09-09T04:08:30;10.68;;;5.70;;
52031;SDS011;38044;45.148;39.604;2022-09-09T04:10:56;20.88;;;6.07;;
52031;SDS011;38044;45.148;39.604;2022-09-09T04:13:23;11.55;;;5.75;;
52031;SDS011;38044;45.148;39.604;2022-09-09T04:15:54;18.67;;;5.45;;
52031;SDS011;38044;45.148;39.604;2022-09-09T04:18:22;13.88;;;5.55;;
52031;SDS011;38044;45.148;39.604;2022-09-09T04:20:49;11.77;;;4.90;;
52031;SDS011;38044;45.148;39.604;2022-09-09T04:23:16;10.05;;;4.63;;
52031;SDS011;38044;45.148;39.604;2022-09-09T04:25:49;11.20;;;4.95;;
52031;SDS011;38044;45.148;39.604;2022-09-09T04:28:16;14.55;;;5.55;;
52031;SDS011;38044;45.148;39.604;2022-09-09T04:30:44;21.95;;;6.20;;
52031;SDS011;38044;45.148;39.604;2022-09-09T04:33:10;20.33;;;8.70;;
52031;SDS011;38044;45.148;39.604;2022-09-09T04:35:37;18.67;;;7.30;;
52031;SDS011;38044;45.148;39.604;2022-09-09T04:38:04;18.60;;;9.52;;
52031;SDS011;38044;45.148;39.604;2022-09-09T04:40:33;19.67;;;8.38;;
52031;SDS011;38044;45.148;39.604;2022-09-09T04:42:59;16.00;;;6.47;;
52031;SDS011;38044;45.148;39.604;2022-09-09T04:45:26;13.02;;;5.78;;
52031;SDS011;38044;45.148;39.604;2022-09-09T04:47:52;12.90;;;5.93;;
52031;SDS011;38044;45.148;39.604;2022-09-09T04:50:19;12.07;;;5.63;;
52031;SDS011;38044;45.148;39.604;2022-09-09T04:52:45;21.70;;;6.40;;
52031;SDS011;38044;45.148;39.604;2022-09-09T04:55:11;28.73;;;7.03;;
52031;SDS011;38044;45.148;39.604;2022-09-09T04:57:38;14.93;;;7.28;;
52031;SDS011;38044;45.148;39.604;2022-09-09T05:00:05;20.27;;;7.40;;
52031;SDS011;38044;45.148;39.604;2022-09-09T05:02:32;12.50;;;5.50;;
52031;SDS011;38044;45.148;39.604;2022-09-09T05:04:58;16.23;;;5.68;;
52031;SDS011;38044;45.148;39.604;2022-09-09T05:07:27;17.33;;;5.82;;
52031;SDS011;38044;45.148;39.604;2022-09-09T05:09:54;12.18;;;5.20;;
52031;SDS011;38044;45.148;39.604;2022-09-09T05:12:20;12.25;;;5.20;;
52031;SDS011;38044;45.148;39.604;2022-09-09T05:14:47;17.80;;;5.70;;
52031;SDS011;38044;45.148;39.604;2022-09-09T05:17:13;14.55;;;5.05;;
52031;SDS011;38044;45.148;39.604;2022-09-09T05:19:40;20.05;;;6.03;;
52031;SDS011;38044;45.148;39.604;2022-09-09T05:22:06;12.07;;;5.68;;
52031;SDS011;38044;45.148;39.604;2022-09-09T05:24:32;19.88;;;6.13;;
52031;SDS011;38044;45.148;39.604;2022-09-09T05:26:58;15.73;;;5.72;;
52031;SDS011;38044;45.148;39.604;2022-09-09T05:29:26;14.77;;;6.22;;
52031;SDS011;38044;45.148;39.604;2022-09-09T05:31:52;13.82;;;5.72;;
52031;SDS011;38044;45.148;39.604;2022-09-09T05:34:18;14.93;;;5.75;;
52031;SDS011;38044;45.148;39.604;2022-09-09T05:36:46;19.45;;;6.38;;
52031;SDS011;38044;45.148;39.604;2022-09-09T05:39:12;16.45;;;5.50;;
52031;SDS011;38044;45.148;39.604;2022-09-09T05:41:38;13.40;;;5.07;;
52031;SDS011;38044;45.148;39.604;2022-09-09T05:44:05;35.03;;;5.28;;
52031;SDS011;38044;45.148;39.604;2022-09-09T05:46:31;13.75;;;4.57;;
52031;SDS011;38044;45.148;39.604;2022-09-09T05:48:57;10.18;;;4.28;;
52031;SDS011;38044;45.148;39.604;2022-09-09T05:51:24;46.55;;;6.10;;
52031;SDS011;38044;45.148;39.604;2022-09-09T05:53:52;18.27;;;3.55;;
52031;SDS011;38044;45.148;39.604;2022-09-09T05:56:21;12.88;;;3.70;;
52031;SDS011;38044;45.148;39.604;2022-09-09T05:58:50;12.50;;;4.15;;
52031;SDS011;38044;45.148;39.604;2022-09-09T06:01:29;17.08;;;3.47;;
52031;SDS011;38044;45.148;39.604;2022-09-09T06:03:58;7.13;;;2.78;;
52031;SDS011;38044;45.148;39.604;2022-09-09T06:06:25;14.43;;;3.42;;
52031;SDS011;38044;45.148;39.604;2022-09-09T06:08:53;9.55;;;3.92;;
52031;SDS011;38044;45.148;39.604;2022-09-09T06:11:27;10.18;;;3.92;;
52031;SDS011;38044;45.148;39.604;2022-09-09T06:13:58;12.25;;;4.88;;
52031;SDS011;38044;45.148;39.604;2022-09-09T06:16:25;13.15;;;5.55;;
52031;SDS011;38044;45.148;39.604;2022-09-09T06:18:52;16.38;;;7.45;;
52031;SDS011;38044;45.148;39.604;2022-09-09T06:21:24;11.07;;;4.95;;
52031;SDS011;38044;45.148;39.604;2022-09-09T06:23:51;8.10;;;4.03;;
52031;SDS011;38044;45.148;39.604;2022-09-09T06:28:49;22.02;;;4.20;;
52031;SDS011;38044;45.148;39.604;2022-09-09T06:31:18;9.95;;;4.18;;
52031;SDS011;38044;45.148;39.604;2022-09-09T06:33:51;10.85;;;3.80;;
52031;SDS011;38044;45.148;39.604;2022-09-09T06:36:19;9.65;;;4.03;;
52031;SDS011;38044;45.148;39.604;2022-09-09T06:38:48;5.47;;;2.97;;
52031;SDS011;38044;45.148;39.604;2022-09-09T06:41:15;3.53;;;2.13;;
52031;SDS011;38044;45.148;39.604;2022-09-09T06:43:43;8.38;;;2.60;;
52031;SDS011;38044;45.148;39.604;2022-09-09T06:46:11;7.75;;;2.95;;
52031;SDS011;38044;45.148;39.604;2022-09-09T06:48:39;9.63;;;2.90;;
52031;SDS011;38044;45.148;39.604;2022-09-09T06:51:08;9.18;;;2.60;;
52031;SDS011;38044;45.148;39.604;2022-09-09T06:53:37;6.72;;;3.28;;
52031;SDS011;38044;45.148;39.604;2022-09-09T06:58:36;11.60;;;3.03;;
52031;SDS011;38044;45.148;39.604;2022-09-09T07:03:34;10.02;;;2.70;;
52031;SDS011;38044;45.148;39.604;2022-09-09T07:06:00;6.25;;;2.30;;
52031;SDS011;38044;45.148;39.604;2022-09-09T07:08:26;6.00;;;2.40;;
52031;SDS011;38044;45.148;39.604;2022-09-09T07:10:53;7.78;;;2.67;;
52031;SDS011;38044;45.148;39.604;2022-09-09T07:13:23;8.43;;;3.28;;
52031;SDS011;38044;45.148;39.604;2022-09-09T07:15:50;6.97;;;3.55;;
52031;SDS011;38044;45.148;39.604;2022-09-09T07:18:17;7.10;;;3.45;;
52031;SDS011;38044;45.148;39.604;2022-09-09T07:20:43;7.13;;;3.17;;
52031;SDS011;38044;45.148;39.604;2022-09-09T07:23:18;12.00;;;4.43;;
52031;SDS011;38044;45.148;39.604;2022-09-09T07:25:44;9.05;;;3.88;;
52031;SDS011;38044;45.148;39.604;2022-09-09T07:28:10;9.07;;;4.13;;
52031;SDS011;38044;45.148;39.604;2022-09-09T07:30:36;6.53;;;4.03;;
52031;SDS011;38044;45.148;39.604;2022-09-09T07:33:02;11.32;;;4.10;;
52031;SDS011;38044;45.148;39.604;2022-09-09T07:35:28;27.75;;;7.07;;
52031;SDS011;38044;45.148;39.604;2022-09-09T07:37:54;17.00;;;6.88;;
52031;SDS011;38044;45.148;39.604;2022-09-09T07:40:21;11.73;;;6.05;;
52031;SDS011;38044;45.148;39.604;2022-09-09T07:42:47;9.60;;;5.22;;
52031;SDS011;38044;45.148;39.604;2022-09-09T07:45:13;8.00;;;4.68;;
52031;SDS011;38044;45.148;39.604;2022-09-09T07:47:39;10.35;;;4.10;;
52031;SDS011;38044;45.148;39.604;2022-09-09T07:50:08;8.60;;;3.83;;
52031;SDS011;38044;45.148;39.604;2022-09-09T07:52:34;9.48;;;3.47;;
52031;SDS011;38044;45.148;39.604;2022-09-09T07:55:01;10.80;;;3.58;;
52031;SDS011;38044;45.148;39.604;2022-09-09T07:57:31;5.15;;;2.90;;
52031;SDS011;38044;45.148;39.604;2022-09-09T07:59:57;15.70;;;3.63;;
52031;SDS011;38044;45.148;39.604;2022-09-09T08:02:23;6.75;;;2.40;;
52031;SDS011;38044;45.148;39.604;2022-09-09T08:04:50;6.70;;;2.85;;
52031;SDS011;38044;45.148;39.604;2022-09-09T08:07:17;5.97;;;3.17;;
52031;SDS011;38044;45.148;39.604;2022-09-09T08:09:43;7.75;;;3.38;;
52031;SDS011;38044;45.148;39.604;2022-09-09T08:12:09;7.40;;;2.80;;
52031;SDS011;38044;45.148;39.604;2022-09-09T08:14:35;8.50;;;5.95;;
52031;SDS011;38044;45.148;39.604;2022-09-09T08:17:02;12.98;;;5.30;;
52031;SDS011;38044;45.148;39.604;2022-09-09T08:19:28;8.48;;;2.95;;
52031;SDS011;38044;45.148;39.604;2022-09-09T08:21:55;9.23;;;3.28;;
52031;SDS011;38044;45.148;39.604;2022-09-09T08:24:21;8.65;;;2.40;;
52031;SDS011;38044;45.148;39.604;2022-09-09T08:26:48;6.00;;;2.20;;
52031;SDS011;38044;45.148;39.604;2022-09-09T08:29:15;8.40;;;2.40;;
52031;SDS011;38044;45.148;39.604;2022-09-09T08:31:42;6.78;;;2.67;;
52031;SDS011;38044;45.148;39.604;2022-09-09T08:34:13;3.95;;;2.80;;
52031;SDS011;38044;45.148;39.604;2022-09-09T08:36:41;8.55;;;3.20;;
52031;SDS011;38044;45.148;39.604;2022-09-09T08:39:09;8.70;;;3.30;;
52031;SDS011;38044;45.148;39.604;2022-09-09T08:41:39;4.57;;;2.38;;
52031;SDS011;38044;45.148;39.604;2022-09-09T08:44:11;12.20;;;3.28;;
52031;SDS011;38044;45.148;39.604;2022-09-09T08:52:19;8.35;;;4.93;;
52031;SDS011;38044;45.148;39.604;2022-09-09T08:54:48;7.95;;;3.25;;
52031;SDS011;38044;45.148;39.604;2022-09-09T08:57:23;9.70;;;3.45;;
52031;SDS011;38044;45.148;39.604;2022-09-09T08:59:52;5.00;;;2.70;;
52031;SDS011;38044;45.148;39.604;2022-09-09T09:02:21;10.10;;;4.47;;
52031;SDS011;38044;45.148;39.604;2022-09-09T09:12:55;4.05;;;2.00;;
52031;SDS011;38044;45.148;39.604;2022-09-09T09:15:23;5.97;;;2.03;;
52031;SDS011;38044;45.148;39.604;2022-09-09T09:17:52;2.13;;;1.42;;
52031;SDS011;38044;45.148;39.604;2022-09-09T09:20:20;7.40;;;2.40;;
52031;SDS011;38044;45.148;39.604;2022-09-09T09:23:01;11.35;;;2.47;;
52031;SDS011;38044;45.148;39.604;2022-09-09T09:25:39;4.15;;;1.88;;
52031;SDS011;38044;45.148;39.604;2022-09-09T09:28:21;4.18;;;2.10;;
52031;SDS011;38044;45.148;39.604;2022-09-09T09:30:52;2.65;;;1.85;;
52031;SDS011;38044;45.148;39.604;2022-09-09T09:33:33;7.82;;;3.80;;
52031;SDS011;38044;45.148;39.604;2022-09-09T09:36:06;6.85;;;2.10;;
52031;SDS011;38044;45.148;39.604;2022-09-09T09:38:36;3.65;;;2.08;;
52031;SDS011;38044;45.148;39.604;2022-09-09T09:41:02;3.75;;;2.55;;
52031;SDS011;38044;45.148;39.604;2022-09-09T09:43:35;7.03;;;2.63;;
52031;SDS011;38044;45.148;39.604;2022-09-09T09:46:05;6.75;;;2.00;;
52031;SDS011;38044;45.148;39.604;2022-09-09T09:48:44;6.32;;;2.00;;
52031;SDS011;38044;45.148;39.604;2022-09-09T09:51:21;5.53;;;1.98;;
52031;SDS011;38044;45.148;39.604;2022-09-09T09:53:48;6.38;;;2.30;;
52031;SDS011;38044;45.148;39.604;2022-09-09T09:56:14;6.82;;;2.35;;
52031;SDS011;38044;45.148;39.604;2022-09-09T10:01:23;8.18;;;2.45;;
52031;SDS011;38044;45.148;39.604;2022-09-09T10:03:53;3.83;;;2.22;;
52031;SDS011;38044;45.148;39.604;2022-09-09T10:06:32;6.93;;;3.13;;
52031;SDS011;38044;45.148;39.604;2022-09-09T10:09:00;6.22;;;2.05;;
52031;SDS011;38044;45.148;39.604;2022-09-09T10:11:38;9.30;;;2.97;;
52031;SDS011;38044;45.148;39.604;2022-09-09T10:19:33;8.40;;;2.67;;
52031;SDS011;38044;45.148;39.604;2022-09-09T10:22:11;6.95;;;2.60;;
52031;SDS011;38044;45.148;39.604;2022-09-09T10:30:33;5.60;;;2.33;;
52031;SDS011;38044;45.148;39.604;2022-09-09T10:36:02;4.53;;;2.60;;
52031;SDS011;38044;45.148;39.604;2022-09-09T10:38:59;6.03;;;2.70;;
52031;SDS011;38044;45.148;39.604;2022-09-09T10:50:10;7.30;;;3.08;;
52031;SDS011;38044;45.148;39.604;2022-09-09T10:55:19;5.80;;;3.47;;
52031;SDS011;38044;45.148;39.604;2022-09-09T10:57:51;9.95;;;3.60;;
52031;SDS011;38044;45.148;39.604;2022-09-09T11:00:20;14.60;;;3.65;;
52031;SDS011;38044;45.148;39.604;2022-09-09T11:03:21;4.85;;;3.00;;
52031;SDS011;38044;45.148;39.604;2022-09-09T11:06:37;8.57;;;4.10;;
52031;SDS011;38044;45.148;39.604;2022-09-09T11:08:42;8.48;;;4.38;;
52031;SDS011;38044;45.148;39.604;2022-09-09T11:11:21;8.07;;;3.65;;
52031;SDS011;38044;45.148;39.604;2022-09-09T11:16:38;5.38;;;3.03;;
52031;SDS011;38044;45.148;39.604;2022-09-09T11:22:20;7.07;;;3.38;;
52031;SDS011;38044;45.148;39.604;2022-09-09T11:25:14;7.32;;;3.33;;
52031;SDS011;38044;45.148;39.604;2022-09-09T11:41:12;4.85;;;3.20;;
52031;SDS011;38044;45.148;39.604;2022-09-09T11:43:40;9.43;;;3.47;;
52031;SDS011;38044;45.148;39.604;2022-09-09T11:46:11;6.20;;;3.08;;
52031;SDS011;38044;45.148;39.604;2022-09-09T11:48:41;6.57;;;2.75;;
52031;SDS011;38044;45.148;39.604;2022-09-09T11:53:50;8.02;;;3.15;;
52031;SDS011;38044;45.148;39.604;2022-09-09T11:59:02;5.90;;;2.50;;
52031;SDS011;38044;45.148;39.604;2022-09-09T12:01:35;8.00;;;2.90;;
52031;SDS011;38044;45.148;39.604;2022-09-09T12:04:26;15.88;;;3.00;;
52031;SDS011;38044;45.148;39.604;2022-09-09T12:07:05;6.57;;;3.38;;
52031;SDS011;38044;45.148;39.604;2022-09-09T12:12:47;7.65;;;3.03;;
52031;SDS011;38044;45.148;39.604;2022-09-09T12:17:42;6.78;;;2.95;;
52031;SDS011;38044;45.148;39.604;2022-09-09T12:20:23;6.20;;;2.92;;
52031;SDS011;38044;45.148;39.604;2022-09-09T12:22:51;5.05;;;3.25;;
52031;SDS011;38044;45.148;39.604;2022-09-09T12:39:44;10.50;;;3.72;;
52031;SDS011;38044;45.148;39.604;2022-09-09T12:42:16;6.93;;;3.30;;
52031;SDS011;38044;45.148;39.604;2022-09-09T12:45:14;15.02;;;5.95;;
52031;SDS011;38044;45.148;39.604;2022-09-09T12:47:49;11.45;;;5.30;;
52031;SDS011;38044;45.148;39.604;2022-09-09T12:50:20;9.82;;;3.65;;
52031;SDS011;38044;45.148;39.604;2022-09-09T12:52:50;6.93;;;3.40;;
52031;SDS011;38044;45.148;39.604;2022-09-09T12:55:23;7.32;;;3.33;;
52031;SDS011;38044;45.148;39.604;2022-09-09T12:57:58;7.05;;;3.30;;
52031;SDS011;38044;45.148;39.604;2022-09-09T13:00:29;9.65;;;3.80;;
52031;SDS011;38044;45.148;39.604;2022-09-09T13:03:00;10.90;;;4.50;;
52031;SDS011;38044;45.148;39.604;2022-09-09T13:05:35;7.30;;;2.92;;
52031;SDS011;38044;45.148;39.604;2022-09-09T13:08:04;9.07;;;2.90;;
52031;SDS011;38044;45.148;39.604;2022-09-09T13:10:34;6.22;;;2.63;;
52031;SDS011;38044;45.148;39.604;2022-09-09T13:13:04;7.30;;;2.47;;
52031;SDS011;38044;45.148;39.604;2022-09-09T13:15:38;10.05;;;2.90;;
52031;SDS011;38044;45.148;39.604;2022-09-09T13:18:05;7.20;;;2.88;;
52031;SDS011;38044;45.148;39.604;2022-09-09T13:20:37;8.30;;;3.20;;
52031;SDS011;38044;45.148;39.604;2022-09-09T13:23:03;9.77;;;4.90;;
52031;SDS011;38044;45.148;39.604;2022-09-09T13:25:29;13.88;;;2.85;;
52031;SDS011;38044;45.148;39.604;2022-09-09T13:27:59;6.70;;;3.38;;
52031;SDS011;38044;45.148;39.604;2022-09-09T13:30:28;6.00;;;3.35;;
52031;SDS011;38044;45.148;39.604;2022-09-09T13:35:45;4.43;;;2.60;;
52031;SDS011;38044;45.148;39.604;2022-09-09T13:38:15;5.07;;;2.60;;
52031;SDS011;38044;45.148;39.604;2022-09-09T13:40:54;5.57;;;2.40;;
52031;SDS011;38044;45.148;39.604;2022-09-09T13:43:23;7.80;;;2.95;;
52031;SDS011;38044;45.148;39.604;2022-09-09T13:45:54;5.93;;;3.28;;
52031;SDS011;38044;45.148;39.604;2022-09-09T13:48:23;9.90;;;4.60;;
52031;SDS011;38044;45.148;39.604;2022-09-09T13:50:54;10.60;;;5.78;;
52031;SDS011;38044;45.148;39.604;2022-09-09T13:53:21;8.30;;;3.25;;
52031;SDS011;38044;45.148;39.604;2022-09-09T13:55:47;7.40;;;2.67;;
52031;SDS011;38044;45.148;39.604;2022-09-09T13:58:16;5.90;;;2.70;;
52031;SDS011;38044;45.148;39.604;2022-09-09T14:00:46;11.30;;;2.88;;
52031;SDS011;38044;45.148;39.604;2022-09-09T14:03:13;6.82;;;2.35;;
52031;SDS011;38044;45.148;39.604;2022-09-09T14:05:39;10.02;;;2.20;;
52031;SDS011;38044;45.148;39.604;2022-09-09T14:08:05;7.28;;;2.42;;
52031;SDS011;38044;45.148;39.604;2022-09-09T14:10:32;7.10;;;2.80;;
52031;SDS011;38044;45.148;39.604;2022-09-09T14:16:23;6.45;;;2.85;;
52031;SDS011;38044;45.148;39.604;2022-09-09T14:18:49;10.13;;;3.38;;
52031;SDS011;38044;45.148;39.604;2022-09-09T14:21:15;9.07;;;3.10;;
52031;SDS011;38044;45.148;39.604;2022-09-09T14:23:41;11.07;;;3.00;;
52031;SDS011;38044;45.148;39.604;2022-09-09T14:26:07;17.42;;;3.05;;
52031;SDS011;38044;45.148;39.604;2022-09-09T14:28:34;10.05;;;2.95;;
52031;SDS011;38044;45.148;39.604;2022-09-09T14:31:02;13.95;;;3.50;;
52031;SDS011;38044;45.148;39.604;2022-09-09T14:33:29;11.43;;;3.75;;
52031;SDS011;38044;45.148;39.604;2022-09-09T14:35:56;13.68;;;3.22;;
52031;SDS011;38044;45.148;39.604;2022-09-09T14:38:23;16.02;;;3.03;;
52031;SDS011;38044;45.148;39.604;2022-09-09T14:40:49;12.88;;;3.20;;
52031;SDS011;38044;45.148;39.604;2022-09-09T14:43:15;11.90;;;2.92;;
52031;SDS011;38044;45.148;39.604;2022-09-09T14:45:41;13.45;;;2.70;;
52031;SDS011;38044;45.148;39.604;2022-09-09T14:48:08;12.77;;;3.00;;
52031;SDS011;38044;45.148;39.604;2022-09-09T14:50:34;11.32;;;3.17;;
52031;SDS011;38044;45.148;39.604;2022-09-09T14:53:05;19.13;;;7.38;;
52031;SDS011;38044;45.148;39.604;2022-09-09T14:55:31;26.13;;;8.88;;
52031;SDS011;38044;45.148;39.604;2022-09-09T14:57:56;21.58;;;9.05;;
52031;SDS011;38044;45.148;39.604;2022-09-09T15:00:23;18.35;;;8.55;;
52031;SDS011;38044;45.148;39.604;2022-09-09T15:02:54;15.05;;;7.60;;
52031;SDS011;38044;45.148;39.604;2022-09-09T15:05:24;14.95;;;6.43;;
52031;SDS011;38044;45.148;39.604;2022-09-09T15:07:50;12.98;;;5.57;;
52031;SDS011;38044;45.148;39.604;2022-09-09T15:10:16;19.27;;;6.53;;
52031;SDS011;38044;45.148;39.604;2022-09-09T15:12:42;15.88;;;6.28;;
52031;SDS011;38044;45.148;39.604;2022-09-09T15:15:09;15.63;;;5.95;;
52031;SDS011;38044;45.148;39.604;2022-09-09T15:17:35;21.40;;;6.05;;
52031;SDS011;38044;45.148;39.604;2022-09-09T15:20:04;19.05;;;6.30;;
52031;SDS011;38044;45.148;39.604;2022-09-09T15:22:31;27.05;;;6.43;;
52031;SDS011;38044;45.148;39.604;2022-09-09T15:24:57;22.42;;;6.47;;
52031;SDS011;38044;45.148;39.604;2022-09-09T15:27:23;24.77;;;6.50;;
52031;SDS011;38044;45.148;39.604;2022-09-09T15:29:49;26.70;;;6.72;;
52031;SDS011;38044;45.148;39.604;2022-09-09T15:32:16;25.00;;;6.05;;
52031;SDS011;38044;45.148;39.604;2022-09-09T15:34:43;25.80;;;7.32;;
52031;SDS011;38044;45.148;39.604;2022-09-09T15:37:11;42.22;;;8.27;;
52031;SDS011;38044;45.148;39.604;2022-09-09T15:39:38;41.17;;;10.85;;
52031;SDS011;38044;45.148;39.604;2022-09-09T15:42:06;46.67;;;11.70;;
52031;SDS011;38044;45.148;39.604;2022-09-09T15:44:41;60.88;;;10.85;;
52031;SDS011;38044;45.148;39.604;2022-09-09T15:47:12;58.78;;;11.27;;
52031;SDS011;38044;45.148;39.604;2022-09-09T15:49:38;49.97;;;12.15;;
52031;SDS011;38044;45.148;39.604;2022-09-09T15:52:04;42.10;;;12.40;;
52031;SDS011;38044;45.148;39.604;2022-09-09T15:54:31;44.08;;;15.98;;
52031;SDS011;38044;45.148;39.604;2022-09-09T15:56:59;43.70;;;15.20;;
52031;SDS011;38044;45.148;39.604;2022-09-09T15:59:27;86.85;;;16.42;;
52031;SDS011;38044;45.148;39.604;2022-09-09T16:01:54;88.65;;;15.75;;
52031;SDS011;38044;45.148;39.604;2022-09-09T16:04:21;54.15;;;13.13;;
52031;SDS011;38044;45.148;39.604;2022-09-09T16:06:51;39.25;;;13.48;;
52031;SDS011;38044;45.148;39.604;2022-09-09T16:09:19;48.00;;;12.43;;
52031;SDS011;38044;45.148;39.604;2022-09-09T16:11:46;61.95;;;13.60;;
52031;SDS011;38044;45.148;39.604;2022-09-09T16:14:13;72.70;;;15.00;;
52031;SDS011;38044;45.148;39.604;2022-09-09T16:16:40;120.55;;;20.35;;
52031;SDS011;38044;45.148;39.604;2022-09-09T16:19:08;111.43;;;19.10;;
52031;SDS011;38044;45.148;39.604;2022-09-09T16:21:41;109.75;;;23.00;;
52031;SDS011;38044;45.148;39.604;2022-09-09T16:24:09;117.47;;;34.58;;
52031;SDS011;38044;45.148;39.604;2022-09-09T16:26:38;134.65;;;46.22;;
52031;SDS011;38044;45.148;39.604;2022-09-09T16:29:07;197.05;;;28.13;;
52031;SDS011;38044;45.148;39.604;2022-09-09T16:31:34;161.10;;;31.52;;
52031;SDS011;38044;45.148;39.604;2022-09-09T16:33:59;217.82;;;75.47;;
52031;SDS011;38044;45.148;39.604;2022-09-09T16:36:26;226.48;;;78.75;;
52031;SDS011;38044;45.148;39.604;2022-09-09T16:39:01;753.08;;;355.08;;
52031;SDS011;38044;45.148;39.604;2022-09-09T16:41:29;1066.38;;;523.10;;
52031;SDS011;38044;45.148;39.604;2022-09-09T16:43:57;1006.90;;;501.58;;
52031;SDS011;38044;45.148;39.604;2022-09-09T16:46:25;1024.20;;;511.60;;
52031;SDS011;38044;45.148;39.604;2022-09-09T16:48:52;1111.03;;;574.88;;
52031;SDS011;38044;45.148;39.604;2022-09-09T16:51:24;1078.38;;;558.20;;
52031;SDS011;38044;45.148;39.604;2022-09-09T16:53:58;850.05;;;488.67;;
52031;SDS011;38044;45.148;39.604;2022-09-09T16:56:26;781.08;;;427.70;;
52031;SDS011;38044;45.148;39.604;2022-09-09T16:58:58;702.10;;;391.60;;